METAR ET TAF INFORMATION
METAR FOR KEVM
ADDS - METARS form results

(0337 UTC 25 May 2019)
Data provider http://aviationweather.gov/metar/data/
 
METAR text: KEVM 250335Z AUTO 16006KT 4SM BR OVC001 11/11 A2972 RMK AO2 P0001 T01070106
Conditions at: KEVM (EVELETH MUNI , MN, US) observed 0335 UTC 25 May 2019
Temperature: 10.7°C (51°F)
Dewpoint: 10.6°C (51°F) [RH = 99%]
Pressure (altimeter): 29.72 inches Hg (1006.5 mb)
Winds: from the SSE (160 degrees) at 7 MPH (6 knots; 3.1 m/s)
Visibility: 4 miles ( 6 km)
Ceiling: 100 feet AGL
Clouds: overcast cloud deck at 100 feet AGL
Weather: BR  (mist)

METAR text: KEVM 250315Z AUTO 15005KT 3SM BR OVC001 11/11 A2972 RMK AO2 T01050105
Conditions at: KEVM (EVELETH MUNI , MN, US) observed 0315 UTC 25 May 2019
Temperature: 10.5°C (51°F)
Dewpoint: 10.5°C (51°F) [RH = 100%]
Pressure (altimeter): 29.72 inches Hg (1006.5 mb)
Winds: from the SSE (150 degrees) at 6 MPH (5 knots; 2.6 m/s)
Visibility: 3 miles ( 5 km)
Ceiling: 100 feet AGL
Clouds: overcast cloud deck at 100 feet AGL
Weather: BR  (mist)

METAR text: KEVM 250256Z AUTO 16005KT 3SM BR OVC003 11/10 A2973 RMK AO2 T01050102
Conditions at: KEVM (EVELETH MUNI , MN, US) observed 0256 UTC 25 May 2019
Temperature: 10.5°C (51°F)
Dewpoint: 10.2°C (50°F) [RH = 98%]
Pressure (altimeter): 29.73 inches Hg (1006.9 mb)
Winds: from the SSE (160 degrees) at 6 MPH (5 knots; 2.6 m/s)
Visibility: 3 miles ( 5 km)
Ceiling: 300 feet AGL
Clouds: overcast cloud deck at 300 feet AGL
Weather: BR  (mist)

METAR text: KEVM 250255Z AUTO 15006KT 3SM BR OVC003 10/10 A2973 RMK AO2 T01040102
Conditions at: KEVM (EVELETH MUNI , MN, US) observed 0255 UTC 25 May 2019
Temperature: 10.4°C (51°F)
Dewpoint: 10.2°C (50°F) [RH = 99%]
Pressure (altimeter): 29.73 inches Hg (1006.9 mb)
Winds: from the SSE (150 degrees) at 7 MPH (6 knots; 3.1 m/s)
Visibility: 3 miles ( 5 km)
Ceiling: 300 feet AGL
Clouds: overcast cloud deck at 300 feet AGL
Weather: BR  (mist)

 AÉROPORT DE AÉROPORT

 INFORMATIONS DE PISTE
Piste 05 Longueur de la piste 2685 ft Largeur de la piste 110 ft
Élévation de la piste 0 ft Seuil de la piste déplacés 0 ft Runway heading 51
Piste 23 Longueur de la piste 2685 ft Largeur de la piste 110 ft
Élévation de la piste 0 ft Seuil de la piste déplacés 885 ft Runway heading 231
Piste 09 Longueur de la piste 4215 ft Largeur de la piste 100 ft
Élévation de la piste 1376 ft Seuil de la piste déplacés 0 ft Runway heading 94
Piste 27 Longueur de la piste 4215 ft Largeur de la piste 100 ft
Élévation de la piste 1369 ft Seuil de la piste déplacés 0 ft Runway heading 274
Piste 14 Longueur de la piste 2506 ft Largeur de la piste 100 ft
Élévation de la piste 1378 ft Seuil de la piste déplacés 0 ft Runway heading 139
Piste 32 Longueur de la piste 2506 ft Largeur de la piste 100 ft
Élévation de la piste 1369 ft Seuil de la piste déplacés 0 ft Runway heading 319

 AÉROPORT FRÉQUENCES
Type A/D Nom DULUTH APP Féquence 125.45 MHZ
Type AWOS Nom AWOS 3 Féquence 108.2 MHZ
Type RDO Nom PRINCETON Féquence 122.45 MHZ
Type UNIC Nom CTAF/UNICO Féquence 122.7 MHZ

 SIDA DE NAVIGATION



Powered by Virtual Airlines Manager [v2.6.2]